Time;durP1;ratioP1;P1;durP2;ratioP2;P2;SDS_P1;SDS_P2;PMS_P1;PMS_P2;Temp;Humidity;BMP_temperature;BMP_pressure;BME280_temperature;BME280_humidity;BME280_pressure;Samples;Min_cycle;Max_cycle;Signal;HPM_P1;HPM_P2
2022/01/11 00:00:45;;;;;;;3.67;3.38;;;;;;;;;;4989868;28;91889;-78
2022/01/11 00:03:12;;;;;;;4.28;3.72;;;;;;;;;;4981458;28;94003;-78
2022/01/11 00:05:48;;;;;;;3.65;3.38;;;;;;;;;;4983820;28;92692;-78
2022/01/11 00:08:15;;;;;;;4.38;3.90;;;;;;;;;;4992738;28;94938;-78
2022/01/11 00:10:54;;;;;;;4.95;4.07;;;;;;;;;;4984946;28;94213;-78
2022/01/11 00:13:21;;;;;;;3.42;3.03;;;;;;;;;;4979046;28;93379;-78
2022/01/11 00:15:48;;;;;;;3.65;3.35;;;;;;;;;;4984458;28;92344;-78
2022/01/11 00:18:15;;;;;;;3.83;3.42;;;;;;;;;;4992219;28;92487;-78
2022/01/11 00:20:41;;;;;;;3.95;3.55;;;;;;;;;;4983246;28;92155;-78
2022/01/11 00:25:36;;;;;;;4.47;3.78;;;;;;;;;;4975929;28;92767;-78
2022/01/11 00:28:03;;;;;;;3.88;3.58;;;;;;;;;;4987383;28;92356;-77
2022/01/11 00:30:36;;;;;;;3.60;3.30;;;;;;;;;;4993031;28;94775;-77
2022/01/11 00:33:06;;;;;;;4.80;3.90;;;;;;;;;;4980335;28;95896;-77
2022/01/11 00:35:41;;;;;;;3.33;3.13;;;;;;;;;;4988879;28;92806;-78
2022/01/11 00:38:09;;;;;;;4.03;3.72;;;;;;;;;;4986647;28;92149;-77
2022/01/11 00:40:35;;;;;;;4.60;4.20;;;;;;;;;;4983430;28;92541;-77
2022/01/11 00:43:04;;;;;;;3.88;3.58;;;;;;;;;;4984600;28;92875;-77
2022/01/11 00:45:30;;;;;;;4.13;3.47;;;;;;;;;;4974538;28;93132;-78
2022/01/11 00:47:57;;;;;;;3.72;3.42;;;;;;;;;;4987807;28;92257;-78
2022/01/11 00:50:25;;;;;;;4.25;3.95;;;;;;;;;;4998959;28;93843;-78
2022/01/11 00:52:51;;;;;;;3.92;3.63;;;;;;;;;;4997872;28;93283;-78
2022/01/11 00:55:18;;;;;;;4.18;3.78;;;;;;;;;;4974941;28;93056;-78
2022/01/11 00:57:44;;;;;;;4.13;3.50;;;;;;;;;;4985733;28;94858;-78
2022/01/11 01:00:11;;;;;;;4.47;4.07;;;;;;;;;;4983718;28;94676;-78
2022/01/11 01:02:38;;;;;;;4.85;4.30;;;;;;;;;;4992934;28;95350;-77
2022/01/11 01:05:06;;;;;;;4.43;4.05;;;;;;;;;;4972700;28;94621;-77
2022/01/11 01:07:33;;;;;;;4.50;4.10;;;;;;;;;;4976538;28;94815;-78
2022/01/11 01:10:19;;;;;;;4.00;3.70;;;;;;;;;;4989091;28;92370;-77
2022/01/11 01:12:45;;;;;;;5.00;3.80;;;;;;;;;;4973269;28;94243;-77
2022/01/11 01:15:12;;;;;;;4.60;4.20;;;;;;;;;;4987426;28;92057;-77
2022/01/11 01:17:39;;;;;;;5.00;4.50;;;;;;;;;;4983715;28;93753;-77
2022/01/11 01:20:07;;;;;;;5.47;4.15;;;;;;;;;;4975720;28;93919;-77
2022/01/11 01:22:33;;;;;;;4.40;4.00;;;;;;;;;;4979383;28;94851;-77
2022/01/11 01:25:00;;;;;;;5.00;4.43;;;;;;;;;;4981098;28;95954;-77
2022/01/11 01:27:27;;;;;;;5.00;4.55;;;;;;;;;;4986675;28;92444;-77
2022/01/11 01:29:53;;;;;;;8.82;4.70;;;;;;;;;;4972909;28;95525;-78
2022/01/11 01:32:20;;;;;;;5.22;4.68;;;;;;;;;;4988194;28;92508;-77
2022/01/11 01:34:49;;;;;;;6.28;5.30;;;;;;;;;;4974151;28;93050;-77
2022/01/11 01:37:15;;;;;;;4.85;4.45;;;;;;;;;;4991810;28;92452;-77
2022/01/11 01:39:42;;;;;;;7.03;4.60;;;;;;;;;;4984440;28;91976;-77
2022/01/11 01:42:11;;;;;;;4.88;4.32;;;;;;;;;;4977498;28;94605;-78
2022/01/11 01:44:40;;;;;;;5.63;5.00;;;;;;;;;;4989668;28;94826;-78
2022/01/11 01:47:07;;;;;;;5.82;5.22;;;;;;;;;;4988241;28;94878;-78
2022/01/11 01:49:36;;;;;;;5.88;5.13;;;;;;;;;;4981556;28;95106;-78
2022/01/11 01:52:02;;;;;;;5.72;5.18;;;;;;;;;;4993650;28;92385;-78
2022/01/11 01:54:29;;;;;;;5.82;5.22;;;;;;;;;;4974616;28;93319;-78
2022/01/11 01:56:56;;;;;;;6.75;5.93;;;;;;;;;;4977167;28;93056;-78
2022/01/11 01:59:23;;;;;;;5.57;5.07;;;;;;;;;;5009635;28;94726;-78
2022/01/11 02:01:50;;;;;;;5.78;4.85;;;;;;;;;;4992206;28;94187;-78
2022/01/11 02:04:18;;;;;;;6.18;5.22;;;;;;;;;;4960201;28;92103;-77
2022/01/11 02:06:45;;;;;;;5.93;5.32;;;;;;;;;;4984469;28;92148;-78
2022/01/11 02:09:15;;;;;;;5.80;5.15;;;;;;;;;;4972846;28;93114;-77
2022/01/11 02:11:41;;;;;;;6.88;5.03;;;;;;;;;;4973053;28;94820;-77
2022/01/11 02:14:08;;;;;;;6.13;5.20;;;;;;;;;;4992318;28;92346;-78
2022/01/11 02:16:36;;;;;;;6.35;5.68;;;;;;;;;;4991898;28;94809;-77
2022/01/11 02:19:04;;;;;;;7.50;5.38;;;;;;;;;;4980194;28;94537;-78
2022/01/11 02:21:30;;;;;;;5.75;5.10;;;;;;;;;;4989955;28;94059;-77
2022/01/11 02:23:58;;;;;;;7.63;6.07;;;;;;;;;;4981361;28;93051;-78
2022/01/11 02:26:27;;;;;;;4.95;4.55;;;;;;;;;;4959116;28;93105;-78
2022/01/11 02:28:53;;;;;;;6.50;5.20;;;;;;;;;;4997107;28;92536;-77
2022/01/11 02:31:20;;;;;;;6.53;5.63;;;;;;;;;;4991321;28;94903;-78
2022/01/11 02:33:54;;;;;;;6.38;5.78;;;;;;;;;;4976701;28;95299;-78
2022/01/11 02:36:31;;;;;;;5.60;4.97;;;;;;;;;;4991776;28;94597;-77
2022/01/11 02:39:10;;;;;;;5.53;5.00;;;;;;;;;;4995595;28;94476;-77
2022/01/11 02:41:47;;;;;;;6.15;5.53;;;;;;;;;;4982598;28;92355;-78
2022/01/11 02:44:15;;;;;;;7.55;5.32;;;;;;;;;;4995910;28;93055;-78
2022/01/11 02:46:42;;;;;;;7.40;5.70;;;;;;;;;;4995460;28;94061;-78
2022/01/11 02:49:08;;;;;;;7.00;6.07;;;;;;;;;;4997127;28;92333;-78
2022/01/11 02:51:39;;;;;;;6.37;5.33;;;;;;;;;;4998405;28;92654;-78
2022/01/11 02:54:06;;;;;;;6.15;4.82;;;;;;;;;;4995864;28;94786;-78
2022/01/11 02:56:33;;;;;;;6.93;5.80;;;;;;;;;;4995408;28;94577;-78
2022/01/11 02:59:02;;;;;;;6.72;5.60;;;;;;;;;;4995765;28;94718;-78
2022/01/11 03:01:29;;;;;;;6.10;5.50;;;;;;;;;;4977545;28;95492;-78
2022/01/11 03:03:56;;;;;;;6.38;5.72;;;;;;;;;;4995842;28;98680;-78
2022/01/11 03:06:23;;;;;;;6.88;5.95;;;;;;;;;;4978912;28;94377;-78
2022/01/11 03:08:50;;;;;;;8.63;6.00;;;;;;;;;;4993679;28;93981;-78
2022/01/11 03:11:19;;;;;;;6.35;5.75;;;;;;;;;;4975850;28;94054;-78
2022/01/11 03:13:47;;;;;;;6.07;5.25;;;;;;;;;;4983415;28;95170;-78
2022/01/11 03:16:16;;;;;;;7.45;6.45;;;;;;;;;;4961967;28;94705;-78
2022/01/11 03:18:44;;;;;;;9.27;6.35;;;;;;;;;;4975867;28;94108;-78
2022/01/11 03:21:11;;;;;;;6.30;5.68;;;;;;;;;;4974755;28;95018;-78
2022/01/11 03:23:38;;;;;;;6.70;5.35;;;;;;;;;;4975941;28;92831;-77
2022/01/11 03:26:05;;;;;;;6.72;5.95;;;;;;;;;;4991947;28;96593;-77
2022/01/11 03:28:34;;;;;;;5.95;5.20;;;;;;;;;;4994390;28;94189;-77
2022/01/11 03:31:01;;;;;;;6.40;5.80;;;;;;;;;;4976451;28;93127;-77
2022/01/11 03:33:34;;;;;;;6.70;5.45;;;;;;;;;;4986139;28;95364;-77
2022/01/11 03:36:00;;;;;;;7.57;6.05;;;;;;;;;;4994005;28;93892;-77
2022/01/11 03:38:27;;;;;;;6.65;5.93;;;;;;;;;;4983871;28;93113;-77
2022/01/11 03:41:00;;;;;;;7.13;5.72;;;;;;;;;;4979954;28;94159;-77
2022/01/11 03:43:27;;;;;;;8.73;6.82;;;;;;;;;;4987915;28;92795;-77
2022/01/11 03:45:53;;;;;;;6.82;6.13;;;;;;;;;;4987228;28;96150;-77
2022/01/11 03:48:21;;;;;;;7.03;6.32;;;;;;;;;;4987923;28;94963;-77
2022/01/11 03:50:52;;;;;;;8.43;6.80;;;;;;;;;;4972818;28;94672;-77
2022/01/11 03:53:44;;;;;;;7.18;6.25;;;;;;;;;;4974239;28;93466;-77
2022/01/11 03:56:32;;;;;;;7.20;6.20;;;;;;;;;;4974946;28;95665;-77
2022/01/11 03:59:06;;;;;;;7.80;7.00;;;;;;;;;;4984134;28;92399;-77
2022/01/11 04:01:36;;;;;;;7.53;6.43;;;;;;;;;;4990565;28;93924;-77
2022/01/11 04:04:04;;;;;;;8.15;6.70;;;;;;;;;;4995206;28;92992;-76
2022/01/11 04:06:30;;;;;;;7.25;6.55;;;;;;;;;;4979392;28;96223;-77
2022/01/11 04:08:57;;;;;;;8.23;6.28;;;;;;;;;;4986711;28;93943;-77
2022/01/11 04:11:24;;;;;;;8.27;6.72;;;;;;;;;;4987447;28;94453;-77
2022/01/11 04:13:52;;;;;;;7.22;6.50;;;;;;;;;;4980182;28;94331;-77
2022/01/11 04:16:21;;;;;;;8.60;6.15;;;;;;;;;;4984978;28;94494;-77
2022/01/11 04:18:48;;;;;;;7.90;6.47;;;;;;;;;;4978988;28;97489;-76
2022/01/11 04:21:15;;;;;;;9.77;7.55;;;;;;;;;;4975513;28;92442;-76
2022/01/11 04:23:45;;;;;;;7.22;6.53;;;;;;;;;;4973729;28;96420;-76
2022/01/11 04:26:12;;;;;;;8.55;7.05;;;;;;;;;;4982181;28;92246;-76
2022/01/11 04:28:38;;;;;;;9.18;7.15;;;;;;;;;;4993907;28;92512;-76
2022/01/11 04:31:06;;;;;;;8.60;7.30;;;;;;;;;;4973705;28;95391;-76
2022/01/11 04:33:34;;;;;;;8.00;6.80;;;;;;;;;;4974173;28;95093;-76
2022/01/11 04:36:01;;;;;;;8.45;7.25;;;;;;;;;;4986961;28;92579;-76
2022/01/11 04:38:29;;;;;;;9.40;7.38;;;;;;;;;;4985246;28;93627;-76
2022/01/11 04:40:56;;;;;;;9.60;7.80;;;;;;;;;;4980678;28;96836;-76
2022/01/11 04:43:24;;;;;;;9.77;7.30;;;;;;;;;;4977260;28;94137;-77
2022/01/11 04:45:50;;;;;;;9.48;7.90;;;;;;;;;;4990535;28;94276;-76
2022/01/11 04:48:18;;;;;;;9.60;8.07;;;;;;;;;;4981826;28;93807;-77
2022/01/11 04:50:47;;;;;;;9.93;7.72;;;;;;;;;;4978996;28;95159;-77
2022/01/11 04:53:16;;;;;;;10.60;7.93;;;;;;;;;;4985808;28;92404;-77
2022/01/11 04:55:42;;;;;;;11.18;8.35;;;;;;;;;;4988160;28;92444;-77
2022/01/11 04:58:09;;;;;;;9.95;8.15;;;;;;;;;;4973406;28;95610;-77
2022/01/11 05:00:36;;;;;;;9.63;8.50;;;;;;;;;;4973361;28;95747;-76
2022/01/11 05:03:02;;;;;;;10.77;8.20;;;;;;;;;;4990365;28;93028;-77
2022/01/11 05:05:30;;;;;;;11.25;8.85;;;;;;;;;;4981107;28;96375;-77
2022/01/11 05:07:57;;;;;;;13.27;7.63;;;;;;;;;;4980104;28;92999;-77
2022/01/11 05:10:24;;;;;;;9.80;8.40;;;;;;;;;;4984446;28;94828;-77
2022/01/11 05:12:51;;;;;;;10.35;8.45;;;;;;;;;;4987451;28;94039;-77
2022/01/11 05:15:19;;;;;;;9.05;7.70;;;;;;;;;;4980552;28;93775;-76
2022/01/11 05:17:48;;;;;;;9.48;8.13;;;;;;;;;;4986712;28;92252;-77
2022/01/11 05:20:17;;;;;;;12.95;8.35;;;;;;;;;;4983198;28;94464;-77
2022/01/11 05:22:45;;;;;;;12.60;9.35;;;;;;;;;;4988049;28;92154;-77
2022/01/11 05:25:13;;;;;;;12.20;8.88;;;;;;;;;;4988765;28;93993;-77
2022/01/11 05:27:40;;;;;;;11.88;9.05;;;;;;;;;;4975650;28;94944;-76
2022/01/11 05:30:08;;;;;;;11.35;8.73;;;;;;;;;;4974872;28;94755;-77
2022/01/11 05:32:35;;;;;;;11.25;9.00;;;;;;;;;;4988882;28;94212;-77
2022/01/11 05:35:06;;;;;;;12.18;8.30;;;;;;;;;;4983485;28;93070;-77
2022/01/11 05:37:33;;;;;;;12.93;9.45;;;;;;;;;;4978236;28;95668;-76
2022/01/11 05:39:59;;;;;;;11.68;8.48;;;;;;;;;;4992506;28;92340;-77
2022/01/11 05:42:26;;;;;;;11.35;8.57;;;;;;;;;;4992403;28;93267;-76
2022/01/11 05:44:53;;;;;;;11.98;9.40;;;;;;;;;;4978221;28;92348;-76
2022/01/11 05:47:20;;;;;;;14.48;9.70;;;;;;;;;;4984906;28;93768;-77
2022/01/11 05:49:47;;;;;;;11.93;9.77;;;;;;;;;;4969651;28;93716;-77
2022/01/11 05:52:14;;;;;;;13.38;9.35;;;;;;;;;;4981962;28;94147;-77
2022/01/11 05:54:41;;;;;;;12.10;9.65;;;;;;;;;;4990548;28;94805;-77
2022/01/11 05:57:08;;;;;;;11.80;9.52;;;;;;;;;;4984156;28;94309;-77
2022/01/11 05:59:34;;;;;;;12.73;9.52;;;;;;;;;;4972293;28;92666;-76
2022/01/11 06:02:01;;;;;;;12.68;9.80;;;;;;;;;;4987781;28;92321;-76
2022/01/11 06:04:28;;;;;;;12.63;10.18;;;;;;;;;;4984722;28;95300;-76
2022/01/11 06:06:55;;;;;;;14.77;10.10;;;;;;;;;;4980967;28;94103;-76
2022/01/11 06:09:26;;;;;;;12.73;9.85;;;;;;;;;;4983596;28;93037;-77
2022/01/11 06:11:53;;;;;;;11.80;9.20;;;;;;;;;;4991832;28;92046;-76
2022/01/11 06:14:19;;;;;;;12.88;9.45;;;;;;;;;;4981541;28;94684;-76
2022/01/11 06:16:46;;;;;;;11.52;9.02;;;;;;;;;;4985802;28;93548;-76
2022/01/11 06:19:13;;;;;;;12.07;9.57;;;;;;;;;;4993774;28;97086;-76
2022/01/11 06:21:45;;;;;;;13.38;9.85;;;;;;;;;;4981498;28;94935;-77
2022/01/11 06:24:12;;;;;;;15.43;10.52;;;;;;;;;;4982132;28;92505;-76
2022/01/11 06:26:39;;;;;;;12.48;9.95;;;;;;;;;;4983227;28;94626;-77
2022/01/11 06:29:05;;;;;;;13.43;9.35;;;;;;;;;;4992713;28;94878;-77
2022/01/11 06:31:34;;;;;;;12.60;9.40;;;;;;;;;;4969804;28;95025;-76
2022/01/11 06:34:02;;;;;;;12.55;9.82;;;;;;;;;;4981452;28;93757;-77
2022/01/11 06:36:29;;;;;;;12.45;9.45;;;;;;;;;;4970207;28;95122;-77
2022/01/11 06:38:55;;;;;;;13.25;9.52;;;;;;;;;;4981188;28;92496;-77
2022/01/11 06:41:26;;;;;;;13.27;9.27;;;;;;;;;;4987743;28;94154;-77
2022/01/11 06:43:54;;;;;;;15.48;10.30;;;;;;;;;;4974148;28;94732;-77
2022/01/11 06:46:24;;;;;;;11.93;9.55;;;;;;;;;;4991575;28;94283;-77
2022/01/11 06:48:52;;;;;;;12.57;9.75;;;;;;;;;;5002255;28;94025;-79
2022/01/11 06:51:20;;;;;;;15.18;10.70;;;;;;;;;;4994497;28;93850;-78
2022/01/11 06:53:49;;;;;;;13.00;9.65;;;;;;;;;;4992413;28;94339;-78
2022/01/11 06:56:17;;;;;;;13.05;10.32;;;;;;;;;;4989504;28;93705;-79
2022/01/11 06:58:47;;;;;;;;;;;;;;;;;;5005053;28;93835;-80
2022/01/11 07:01:14;;;;;;;12.77;9.55;;;;;;;;;;4992285;28;121705;-79
2022/01/11 07:03:44;;;;;;;14.55;10.40;;;;;;;;;;4982058;28;92884;-78
2022/01/11 07:06:23;;;;;;;14.38;9.00;;;;;;;;;;4978974;28;93199;-78
2022/01/11 07:08:50;;;;;;;18.23;10.15;;;;;;;;;;4981064;28;94929;-77
2022/01/11 07:11:21;;;;;;;13.13;9.75;;;;;;;;;;4981879;28;95475;-77
2022/01/11 07:13:49;;;;;;;14.68;9.95;;;;;;;;;;4984417;28;92560;-77
2022/01/11 07:16:16;;;;;;;12.43;9.93;;;;;;;;;;4980509;28;92963;-77
2022/01/11 07:18:44;;;;;;;14.40;9.38;;;;;;;;;;4994613;28;93398;-77
2022/01/11 07:21:11;;;;;;;17.42;9.95;;;;;;;;;;4983907;28;92638;-77
2022/01/11 07:23:38;;;;;;;30.65;9.88;;;;;;;;;;4976342;28;93917;-76
2022/01/11 07:26:07;;;;;;;13.45;9.65;;;;;;;;;;4982947;28;92292;-76
2022/01/11 07:28:35;;;;;;;11.50;9.23;;;;;;;;;;4992153;28;92342;-76
2022/01/11 07:31:06;;;;;;;10.80;8.75;;;;;;;;;;4974055;28;92506;-76
2022/01/11 07:33:40;;;;;;;9.27;7.60;;;;;;;;;;4985369;28;97845;-76
2022/01/11 07:36:08;;;;;;;11.43;9.02;;;;;;;;;;4982945;28;92426;-76
2022/01/11 07:38:35;;;;;;;11.93;9.38;;;;;;;;;;4989634;28;94380;-76
2022/01/11 07:41:07;;;;;;;14.98;9.18;;;;;;;;;;4982313;28;92532;-77
2022/01/11 07:44:05;;;;;;;11.93;9.15;;;;;;;;;;4977520;28;93194;-76
2022/01/11 07:46:36;;;;;;;19.38;8.15;;;;;;;;;;4982270;28;93210;-76
